Decoded Metar for SBSP (SAO PAULO in BRAZIL) (IATA:CGH) | Meteo·Mobile Aviation Weather
aviador You're here:

SBSP Decoded Metar

SAO PAULO in BRAZIL
Report Time2018-10-20 05:00:00
UTC Time2018-10-20 05:14:27
Flight Rules vfr VFR
Wind170° at 12 kt
W.Decomp.*RWY 17: 11.2 kt HW 4.3 kt RCW
W.Rank170° ranks 5
Current wind is above 170° avg. (8.5)
Visibility9999 m
Phenomena:N/A
Clouds:Few 007 Hf
Expected CloudBase > 800 ft AGL from Temp-Dew spread
CeilingNone
Temp15°C (ISA +5)
Dew Point13°C (88% RH)
AAT11.6°C
QNH1019 hPa
Density Alt3,261 ft
Elevation2,635 ft
Report Wrong Elevation
Raw Report
SBSP 200500Z AUTO 17012KT 9999 FEW007 15/13 Q1019=

Extra information for SBSP:More info

Metar Taf Metar & Taf Last 4 Metars F.Rules Stats Wind Profile Meteogram Temp Stats Airport Information Weather charts Add Link Nearby VenuesMetar ALERT Operation Metar Decoded Social comments